sensor_id;sensor_type;location;lat;lon;timestamp;P1;durP1;ratioP1;P2;durP2;ratioP2
5363;SDS011;2705;41.410;2.160;2023-01-31T00:01:14;8.53;;;5.77;;
5363;SDS011;2705;41.410;2.160;2023-01-31T00:03:45;7.70;;;5.90;;
5363;SDS011;2705;41.410;2.160;2023-01-31T00:06:16;9.13;;;6.63;;
5363;SDS011;2705;41.410;2.160;2023-01-31T00:08:46;11.10;;;6.63;;
5363;SDS011;2705;41.410;2.160;2023-01-31T00:11:17;10.57;;;5.80;;
5363;SDS011;2705;41.410;2.160;2023-01-31T00:13:47;9.23;;;6.73;;
5363;SDS011;2705;41.410;2.160;2023-01-31T00:16:17;9.80;;;6.00;;
5363;SDS011;2705;41.410;2.160;2023-01-31T00:18:48;10.43;;;6.50;;
5363;SDS011;2705;41.410;2.160;2023-01-31T00:21:18;11.40;;;5.90;;
5363;SDS011;2705;41.410;2.160;2023-01-31T00:23:48;10.53;;;6.50;;
5363;SDS011;2705;41.410;2.160;2023-01-31T00:26:18;10.93;;;6.30;;
5363;SDS011;2705;41.410;2.160;2023-01-31T00:28:49;9.13;;;6.07;;
5363;SDS011;2705;41.410;2.160;2023-01-31T00:31:19;10.97;;;5.80;;
5363;SDS011;2705;41.410;2.160;2023-01-31T00:33:51;9.20;;;6.27;;
5363;SDS011;2705;41.410;2.160;2023-01-31T00:36:21;10.00;;;6.30;;
5363;SDS011;2705;41.410;2.160;2023-01-31T00:38:51;11.30;;;5.87;;
5363;SDS011;2705;41.410;2.160;2023-01-31T00:41:21;9.93;;;5.83;;
5363;SDS011;2705;41.410;2.160;2023-01-31T00:43:51;6.80;;;5.00;;
5363;SDS011;2705;41.410;2.160;2023-01-31T00:46:21;12.00;;;6.00;;
5363;SDS011;2705;41.410;2.160;2023-01-31T00:48:52;6.60;;;5.57;;
5363;SDS011;2705;41.410;2.160;2023-01-31T00:51:23;8.30;;;5.87;;
5363;SDS011;2705;41.410;2.160;2023-01-31T00:53:54;9.20;;;5.60;;
5363;SDS011;2705;41.410;2.160;2023-01-31T00:56:23;10.00;;;6.80;;
5363;SDS011;2705;41.410;2.160;2023-01-31T00:58:53;10.33;;;7.30;;
5363;SDS011;2705;41.410;2.160;2023-01-31T01:01:23;7.80;;;6.00;;
5363;SDS011;2705;41.410;2.160;2023-01-31T01:04:21;9.00;;;6.63;;
5363;SDS011;2705;41.410;2.160;2023-01-31T01:06:50;8.20;;;6.20;;
5363;SDS011;2705;41.410;2.160;2023-01-31T01:09:20;9.37;;;6.17;;
5363;SDS011;2705;41.410;2.160;2023-01-31T01:11:51;7.43;;;5.27;;
5363;SDS011;2705;41.410;2.160;2023-01-31T01:14:20;7.00;;;5.33;;
5363;SDS011;2705;41.410;2.160;2023-01-31T01:16:49;10.80;;;5.40;;
5363;SDS011;2705;41.410;2.160;2023-01-31T01:19:21;7.63;;;5.10;;
5363;SDS011;2705;41.410;2.160;2023-01-31T01:21:53;7.53;;;6.00;;
5363;SDS011;2705;41.410;2.160;2023-01-31T01:24:23;12.33;;;6.13;;
5363;SDS011;2705;41.410;2.160;2023-01-31T01:26:53;7.50;;;5.70;;
5363;SDS011;2705;41.410;2.160;2023-01-31T01:29:23;10.03;;;6.40;;
5363;SDS011;2705;41.410;2.160;2023-01-31T01:31:53;12.50;;;6.10;;
5363;SDS011;2705;41.410;2.160;2023-01-31T01:34:24;8.50;;;6.17;;
5363;SDS011;2705;41.410;2.160;2023-01-31T01:36:53;9.50;;;5.40;;
5363;SDS011;2705;41.410;2.160;2023-01-31T01:39:23;11.47;;;6.17;;
5363;SDS011;2705;41.410;2.160;2023-01-31T01:41:56;7.30;;;5.40;;
5363;SDS011;2705;41.410;2.160;2023-01-31T01:44:43;9.17;;;6.23;;
5363;SDS011;2705;41.410;2.160;2023-01-31T01:47:14;8.70;;;5.90;;
5363;SDS011;2705;41.410;2.160;2023-01-31T01:49:46;7.73;;;5.53;;
5363;SDS011;2705;41.410;2.160;2023-01-31T01:52:17;9.47;;;6.00;;
5363;SDS011;2705;41.410;2.160;2023-01-31T01:54:49;8.30;;;5.87;;
5363;SDS011;2705;41.410;2.160;2023-01-31T01:57:20;8.60;;;5.67;;
5363;SDS011;2705;41.410;2.160;2023-01-31T01:59:51;9.93;;;6.87;;
5363;SDS011;2705;41.410;2.160;2023-01-31T02:02:23;7.47;;;5.17;;
5363;SDS011;2705;41.410;2.160;2023-01-31T02:04:55;7.40;;;5.40;;
5363;SDS011;2705;41.410;2.160;2023-01-31T02:07:24;7.20;;;5.40;;
5363;SDS011;2705;41.410;2.160;2023-01-31T02:09:56;7.47;;;5.23;;
5363;SDS011;2705;41.410;2.160;2023-01-31T02:12:28;8.17;;;5.30;;
5363;SDS011;2705;41.410;2.160;2023-01-31T02:14:58;9.00;;;5.70;;
5363;SDS011;2705;41.410;2.160;2023-01-31T02:17:28;11.53;;;5.77;;
5363;SDS011;2705;41.410;2.160;2023-01-31T02:20:02;11.10;;;6.70;;
5363;SDS011;2705;41.410;2.160;2023-01-31T02:22:38;10.70;;;5.77;;
5363;SDS011;2705;41.410;2.160;2023-01-31T02:28:25;9.53;;;5.10;;
5363;SDS011;2705;41.410;2.160;2023-01-31T02:33:51;9.30;;;5.30;;
5363;SDS011;2705;41.410;2.160;2023-01-31T02:36:28;7.30;;;5.33;;
5363;SDS011;2705;41.410;2.160;2023-01-31T02:39:02;8.23;;;4.43;;
5363;SDS011;2705;41.410;2.160;2023-01-31T02:41:35;9.73;;;5.67;;
5363;SDS011;2705;41.410;2.160;2023-01-31T02:44:11;12.03;;;6.13;;
5363;SDS011;2705;41.410;2.160;2023-01-31T02:47:03;8.20;;;5.23;;
5363;SDS011;2705;41.410;2.160;2023-01-31T02:49:36;7.70;;;5.30;;
5363;SDS011;2705;41.410;2.160;2023-01-31T02:52:13;7.80;;;6.03;;
5363;SDS011;2705;41.410;2.160;2023-01-31T02:54:51;9.00;;;5.40;;
5363;SDS011;2705;41.410;2.160;2023-01-31T02:57:39;6.90;;;5.30;;
5363;SDS011;2705;41.410;2.160;2023-01-31T03:00:10;8.47;;;5.60;;
5363;SDS011;2705;41.410;2.160;2023-01-31T03:02:40;6.73;;;5.47;;
5363;SDS011;2705;41.410;2.160;2023-01-31T03:05:14;7.90;;;5.37;;
5363;SDS011;2705;41.410;2.160;2023-01-31T03:07:46;9.40;;;5.00;;
5363;SDS011;2705;41.410;2.160;2023-01-31T03:10:23;11.13;;;7.40;;
5363;SDS011;2705;41.410;2.160;2023-01-31T03:13:01;7.43;;;5.40;;
5363;SDS011;2705;41.410;2.160;2023-01-31T03:15:46;10.20;;;5.20;;
5363;SDS011;2705;41.410;2.160;2023-01-31T03:18:37;7.03;;;4.90;;
5363;SDS011;2705;41.410;2.160;2023-01-31T03:21:13;7.70;;;5.67;;
5363;SDS011;2705;41.410;2.160;2023-01-31T03:23:44;7.87;;;5.60;;
5363;SDS011;2705;41.410;2.160;2023-01-31T03:26:16;9.40;;;5.40;;
5363;SDS011;2705;41.410;2.160;2023-01-31T03:28:47;8.93;;;4.93;;
5363;SDS011;2705;41.410;2.160;2023-01-31T03:31:22;6.60;;;4.67;;
5363;SDS011;2705;41.410;2.160;2023-01-31T03:33:53;7.13;;;5.13;;
5363;SDS011;2705;41.410;2.160;2023-01-31T03:36:29;7.70;;;5.03;;
5363;SDS011;2705;41.410;2.160;2023-01-31T03:39:12;6.43;;;5.00;;
5363;SDS011;2705;41.410;2.160;2023-01-31T03:41:47;7.80;;;5.50;;
5363;SDS011;2705;41.410;2.160;2023-01-31T03:44:21;5.83;;;4.83;;
5363;SDS011;2705;41.410;2.160;2023-01-31T03:46:57;7.90;;;5.33;;
5363;SDS011;2705;41.410;2.160;2023-01-31T03:49:28;8.33;;;6.13;;
5363;SDS011;2705;41.410;2.160;2023-01-31T03:52:02;8.30;;;5.83;;
5363;SDS011;2705;41.410;2.160;2023-01-31T03:54:33;9.77;;;6.30;;
5363;SDS011;2705;41.410;2.160;2023-01-31T03:57:05;8.83;;;5.90;;
5363;SDS011;2705;41.410;2.160;2023-01-31T03:59:39;7.77;;;5.70;;
5363;SDS011;2705;41.410;2.160;2023-01-31T04:02:11;6.80;;;5.37;;
5363;SDS011;2705;41.410;2.160;2023-01-31T04:04:44;9.43;;;4.60;;
5363;SDS011;2705;41.410;2.160;2023-01-31T04:07:17;8.40;;;5.13;;
5363;SDS011;2705;41.410;2.160;2023-01-31T04:09:46;5.70;;;4.60;;
5363;SDS011;2705;41.410;2.160;2023-01-31T04:12:15;6.10;;;5.03;;
5363;SDS011;2705;41.410;2.160;2023-01-31T04:14:44;5.93;;;4.30;;
5363;SDS011;2705;41.410;2.160;2023-01-31T04:17:14;5.93;;;4.80;;
5363;SDS011;2705;41.410;2.160;2023-01-31T04:19:43;6.80;;;4.87;;
5363;SDS011;2705;41.410;2.160;2023-01-31T04:22:13;5.70;;;4.40;;
5363;SDS011;2705;41.410;2.160;2023-01-31T04:24:44;7.23;;;4.47;;
5363;SDS011;2705;41.410;2.160;2023-01-31T04:27:13;6.87;;;4.77;;
5363;SDS011;2705;41.410;2.160;2023-01-31T04:29:42;7.07;;;4.90;;
5363;SDS011;2705;41.410;2.160;2023-01-31T04:32:12;4.90;;;4.13;;
5363;SDS011;2705;41.410;2.160;2023-01-31T04:34:41;5.63;;;4.30;;
5363;SDS011;2705;41.410;2.160;2023-01-31T04:37:11;6.03;;;4.77;;
5363;SDS011;2705;41.410;2.160;2023-01-31T04:39:40;8.07;;;4.97;;
5363;SDS011;2705;41.410;2.160;2023-01-31T04:42:11;5.30;;;4.33;;
5363;SDS011;2705;41.410;2.160;2023-01-31T04:44:40;5.10;;;4.33;;
5363;SDS011;2705;41.410;2.160;2023-01-31T04:47:09;8.63;;;4.70;;
5363;SDS011;2705;41.410;2.160;2023-01-31T04:49:38;8.40;;;5.00;;
5363;SDS011;2705;41.410;2.160;2023-01-31T04:52:07;7.43;;;5.30;;
5363;SDS011;2705;41.410;2.160;2023-01-31T04:54:37;6.10;;;4.70;;
5363;SDS011;2705;41.410;2.160;2023-01-31T04:57:07;7.47;;;4.67;;
5363;SDS011;2705;41.410;2.160;2023-01-31T04:59:38;10.50;;;5.17;;
5363;SDS011;2705;41.410;2.160;2023-01-31T05:02:07;6.60;;;4.50;;
5363;SDS011;2705;41.410;2.160;2023-01-31T05:04:37;7.07;;;4.90;;
5363;SDS011;2705;41.410;2.160;2023-01-31T05:07:06;6.10;;;4.73;;
5363;SDS011;2705;41.410;2.160;2023-01-31T05:09:35;5.27;;;3.83;;
5363;SDS011;2705;41.410;2.160;2023-01-31T05:12:05;5.50;;;4.70;;
5363;SDS011;2705;41.410;2.160;2023-01-31T05:14:34;6.07;;;4.80;;
5363;SDS011;2705;41.410;2.160;2023-01-31T05:17:05;5.87;;;4.83;;
5363;SDS011;2705;41.410;2.160;2023-01-31T05:19:34;5.60;;;4.63;;
5363;SDS011;2705;41.410;2.160;2023-01-31T05:22:04;4.60;;;3.77;;
5363;SDS011;2705;41.410;2.160;2023-01-31T05:24:33;6.77;;;4.80;;
5363;SDS011;2705;41.410;2.160;2023-01-31T05:27:03;6.93;;;4.77;;
5363;SDS011;2705;41.410;2.160;2023-01-31T05:29:33;6.70;;;4.33;;
5363;SDS011;2705;41.410;2.160;2023-01-31T05:32:03;7.50;;;4.70;;
5363;SDS011;2705;41.410;2.160;2023-01-31T05:34:34;5.40;;;4.37;;
5363;SDS011;2705;41.410;2.160;2023-01-31T05:37:04;6.80;;;4.90;;
5363;SDS011;2705;41.410;2.160;2023-01-31T05:39:33;5.93;;;4.37;;
5363;SDS011;2705;41.410;2.160;2023-01-31T05:42:03;7.77;;;4.90;;
5363;SDS011;2705;41.410;2.160;2023-01-31T05:44:32;6.37;;;4.10;;
5363;SDS011;2705;41.410;2.160;2023-01-31T05:47:01;5.30;;;3.93;;
5363;SDS011;2705;41.410;2.160;2023-01-31T05:49:31;5.93;;;4.10;;
5363;SDS011;2705;41.410;2.160;2023-01-31T05:52:02;7.90;;;4.17;;
5363;SDS011;2705;41.410;2.160;2023-01-31T05:54:32;6.77;;;4.70;;
5363;SDS011;2705;41.410;2.160;2023-01-31T05:57:01;6.30;;;4.20;;
5363;SDS011;2705;41.410;2.160;2023-01-31T05:59:30;7.33;;;4.27;;
5363;SDS011;2705;41.410;2.160;2023-01-31T06:02:00;6.97;;;4.90;;
5363;SDS011;2705;41.410;2.160;2023-01-31T06:04:29;9.23;;;5.17;;
5363;SDS011;2705;41.410;2.160;2023-01-31T06:06:59;6.27;;;5.13;;
5363;SDS011;2705;41.410;2.160;2023-01-31T06:09:29;6.53;;;4.80;;
5363;SDS011;2705;41.410;2.160;2023-01-31T06:11:59;8.37;;;4.70;;
5363;SDS011;2705;41.410;2.160;2023-01-31T06:14:28;4.90;;;4.13;;
5363;SDS011;2705;41.410;2.160;2023-01-31T06:16:58;7.63;;;4.90;;
5363;SDS011;2705;41.410;2.160;2023-01-31T06:19:27;6.93;;;5.00;;
5363;SDS011;2705;41.410;2.160;2023-01-31T06:21:56;7.40;;;5.37;;
5363;SDS011;2705;41.410;2.160;2023-01-31T06:24:26;6.83;;;5.27;;
5363;SDS011;2705;41.410;2.160;2023-01-31T06:26:56;7.27;;;5.03;;
5363;SDS011;2705;41.410;2.160;2023-01-31T06:29:26;8.53;;;5.17;;
5363;SDS011;2705;41.410;2.160;2023-01-31T06:31:55;6.17;;;5.00;;
5363;SDS011;2705;41.410;2.160;2023-01-31T06:34:24;7.60;;;4.70;;
5363;SDS011;2705;41.410;2.160;2023-01-31T06:36:53;8.23;;;5.33;;
5363;SDS011;2705;41.410;2.160;2023-01-31T06:39:24;5.90;;;4.40;;
5363;SDS011;2705;41.410;2.160;2023-01-31T06:41:54;7.40;;;5.40;;
5363;SDS011;2705;41.410;2.160;2023-01-31T06:44:25;10.10;;;5.97;;
5363;SDS011;2705;41.410;2.160;2023-01-31T06:46:54;5.90;;;4.30;;
5363;SDS011;2705;41.410;2.160;2023-01-31T06:49:23;5.43;;;4.67;;
5363;SDS011;2705;41.410;2.160;2023-01-31T06:51:52;6.40;;;4.73;;
5363;SDS011;2705;41.410;2.160;2023-01-31T06:54:22;6.47;;;4.63;;
5363;SDS011;2705;41.410;2.160;2023-01-31T06:56:52;6.30;;;4.80;;
5363;SDS011;2705;41.410;2.160;2023-01-31T06:59:22;6.90;;;4.70;;
5363;SDS011;2705;41.410;2.160;2023-01-31T07:01:52;7.23;;;5.30;;
5363;SDS011;2705;41.410;2.160;2023-01-31T07:04:22;7.17;;;5.60;;
5363;SDS011;2705;41.410;2.160;2023-01-31T07:06:52;8.53;;;5.37;;
5363;SDS011;2705;41.410;2.160;2023-01-31T07:09:22;10.50;;;5.50;;
5363;SDS011;2705;41.410;2.160;2023-01-31T07:11:51;8.60;;;4.77;;
5363;SDS011;2705;41.410;2.160;2023-01-31T07:14:20;6.40;;;5.00;;
5363;SDS011;2705;41.410;2.160;2023-01-31T07:16:50;10.13;;;5.40;;
5363;SDS011;2705;41.410;2.160;2023-01-31T07:19:20;13.60;;;5.13;;
5363;SDS011;2705;41.410;2.160;2023-01-31T07:21:50;8.57;;;5.10;;
5363;SDS011;2705;41.410;2.160;2023-01-31T07:24:20;9.77;;;6.07;;
5363;SDS011;2705;41.410;2.160;2023-01-31T07:26:50;10.67;;;6.97;;
5363;SDS011;2705;41.410;2.160;2023-01-31T07:29:20;7.07;;;5.67;;
5363;SDS011;2705;41.410;2.160;2023-01-31T07:31:49;17.83;;;12.03;;
5363;SDS011;2705;41.410;2.160;2023-01-31T07:34:19;6.17;;;4.93;;
5363;SDS011;2705;41.410;2.160;2023-01-31T07:36:50;6.60;;;5.33;;
5363;SDS011;2705;41.410;2.160;2023-01-31T07:39:20;6.40;;;5.10;;
5363;SDS011;2705;41.410;2.160;2023-01-31T07:41:49;8.20;;;5.90;;
5363;SDS011;2705;41.410;2.160;2023-01-31T07:44:22;11.87;;;6.13;;
5363;SDS011;2705;41.410;2.160;2023-01-31T07:46:52;8.10;;;4.87;;
5363;SDS011;2705;41.410;2.160;2023-01-31T07:49:22;7.70;;;5.37;;
5363;SDS011;2705;41.410;2.160;2023-01-31T07:51:53;11.33;;;6.50;;
5363;SDS011;2705;41.410;2.160;2023-01-31T07:54:22;7.30;;;4.13;;
5363;SDS011;2705;41.410;2.160;2023-01-31T07:56:51;9.70;;;5.73;;
5363;SDS011;2705;41.410;2.160;2023-01-31T07:59:20;9.20;;;6.90;;
5363;SDS011;2705;41.410;2.160;2023-01-31T08:01:50;9.07;;;5.73;;
5363;SDS011;2705;41.410;2.160;2023-01-31T08:04:36;12.67;;;6.20;;
5363;SDS011;2705;41.410;2.160;2023-01-31T08:07:07;9.00;;;6.50;;
5363;SDS011;2705;41.410;2.160;2023-01-31T08:09:37;10.63;;;6.40;;
5363;SDS011;2705;41.410;2.160;2023-01-31T08:12:06;11.73;;;6.43;;
5363;SDS011;2705;41.410;2.160;2023-01-31T08:14:35;8.70;;;6.90;;
5363;SDS011;2705;41.410;2.160;2023-01-31T08:17:04;9.87;;;6.60;;
5363;SDS011;2705;41.410;2.160;2023-01-31T08:19:34;8.27;;;6.10;;
5363;SDS011;2705;41.410;2.160;2023-01-31T08:22:03;8.77;;;6.20;;
5363;SDS011;2705;41.410;2.160;2023-01-31T08:24:34;14.53;;;6.97;;
5363;SDS011;2705;41.410;2.160;2023-01-31T08:27:03;9.40;;;6.03;;
5363;SDS011;2705;41.410;2.160;2023-01-31T08:29:33;13.83;;;7.90;;
5363;SDS011;2705;41.410;2.160;2023-01-31T08:32:02;19.30;;;7.00;;
5363;SDS011;2705;41.410;2.160;2023-01-31T08:34:31;11.93;;;6.40;;
5363;SDS011;2705;41.410;2.160;2023-01-31T08:37:01;8.00;;;6.37;;
5363;SDS011;2705;41.410;2.160;2023-01-31T08:39:30;13.80;;;7.67;;
5363;SDS011;2705;41.410;2.160;2023-01-31T08:42:01;11.23;;;6.43;;
5363;SDS011;2705;41.410;2.160;2023-01-31T08:44:30;11.70;;;5.97;;
5363;SDS011;2705;41.410;2.160;2023-01-31T08:47:00;14.70;;;6.70;;
5363;SDS011;2705;41.410;2.160;2023-01-31T08:49:29;10.73;;;6.00;;
5363;SDS011;2705;41.410;2.160;2023-01-31T08:51:59;23.37;;;5.10;;
5363;SDS011;2705;41.410;2.160;2023-01-31T08:54:28;17.17;;;6.90;;
5363;SDS011;2705;41.410;2.160;2023-01-31T08:56:58;7.77;;;6.43;;
5363;SDS011;2705;41.410;2.160;2023-01-31T08:59:29;12.20;;;6.97;;
5363;SDS011;2705;41.410;2.160;2023-01-31T09:01:58;17.27;;;10.03;;
5363;SDS011;2705;41.410;2.160;2023-01-31T09:04:28;11.33;;;6.10;;
5363;SDS011;2705;41.410;2.160;2023-01-31T09:06:57;11.93;;;6.20;;
5363;SDS011;2705;41.410;2.160;2023-01-31T09:09:27;10.60;;;5.80;;
5363;SDS011;2705;41.410;2.160;2023-01-31T09:11:56;17.30;;;6.80;;
5363;SDS011;2705;41.410;2.160;2023-01-31T09:14:25;11.63;;;6.50;;
5363;SDS011;2705;41.410;2.160;2023-01-31T09:16:57;10.60;;;6.50;;
5363;SDS011;2705;41.410;2.160;2023-01-31T09:19:27;10.47;;;6.30;;
5363;SDS011;2705;41.410;2.160;2023-01-31T09:21:56;11.97;;;6.73;;
5363;SDS011;2705;41.410;2.160;2023-01-31T09:24:26;17.20;;;6.77;;
5363;SDS011;2705;41.410;2.160;2023-01-31T09:26:55;7.67;;;4.90;;
5363;SDS011;2705;41.410;2.160;2023-01-31T09:29:25;11.07;;;6.80;;
5363;SDS011;2705;41.410;2.160;2023-01-31T09:31:58;17.10;;;7.73;;
5363;SDS011;2705;41.410;2.160;2023-01-31T09:34:27;15.23;;;7.77;;
5363;SDS011;2705;41.410;2.160;2023-01-31T09:36:56;9.90;;;6.30;;
5363;SDS011;2705;41.410;2.160;2023-01-31T09:39:26;10.73;;;6.60;;
5363;SDS011;2705;41.410;2.160;2023-01-31T09:41:56;14.60;;;6.80;;
5363;SDS011;2705;41.410;2.160;2023-01-31T09:44:26;11.40;;;6.30;;
5363;SDS011;2705;41.410;2.160;2023-01-31T09:47:02;10.47;;;6.30;;
5363;SDS011;2705;41.410;2.160;2023-01-31T09:49:36;13.00;;;7.50;;
5363;SDS011;2705;41.410;2.160;2023-01-31T09:52:09;21.80;;;7.10;;
5363;SDS011;2705;41.410;2.160;2023-01-31T09:54:39;9.00;;;6.93;;
5363;SDS011;2705;41.410;2.160;2023-01-31T09:57:12;15.53;;;7.90;;
5363;SDS011;2705;41.410;2.160;2023-01-31T09:59:47;8.70;;;6.43;;
5363;SDS011;2705;41.410;2.160;2023-01-31T10:02:27;15.03;;;7.17;;
5363;SDS011;2705;41.410;2.160;2023-01-31T10:05:02;9.60;;;5.77;;
5363;SDS011;2705;41.410;2.160;2023-01-31T10:07:33;17.00;;;6.17;;
5363;SDS011;2705;41.410;2.160;2023-01-31T10:10:05;15.13;;;6.83;;
5363;SDS011;2705;41.410;2.160;2023-01-31T10:12:37;12.30;;;6.60;;
5363;SDS011;2705;41.410;2.160;2023-01-31T10:15:11;16.87;;;6.30;;
5363;SDS011;2705;41.410;2.160;2023-01-31T10:17:44;13.53;;;8.00;;
5363;SDS011;2705;41.410;2.160;2023-01-31T10:20:17;19.80;;;7.20;;
5363;SDS011;2705;41.410;2.160;2023-01-31T10:22:49;9.83;;;6.33;;
5363;SDS011;2705;41.410;2.160;2023-01-31T10:25:23;10.53;;;7.40;;
5363;SDS011;2705;41.410;2.160;2023-01-31T10:27:55;10.13;;;6.80;;
5363;SDS011;2705;41.410;2.160;2023-01-31T10:30:26;12.67;;;7.80;;
5363;SDS011;2705;41.410;2.160;2023-01-31T10:32:59;13.77;;;6.60;;
5363;SDS011;2705;41.410;2.160;2023-01-31T10:35:32;11.70;;;7.73;;
5363;SDS011;2705;41.410;2.160;2023-01-31T10:38:04;9.90;;;7.13;;
5363;SDS011;2705;41.410;2.160;2023-01-31T10:40:35;19.53;;;11.53;;
5363;SDS011;2705;41.410;2.160;2023-01-31T10:43:09;12.17;;;7.70;;
5363;SDS011;2705;41.410;2.160;2023-01-31T10:45:40;10.43;;;6.80;;
5363;SDS011;2705;41.410;2.160;2023-01-31T10:48:17;13.10;;;7.93;;
5363;SDS011;2705;41.410;2.160;2023-01-31T10:50:56;13.20;;;7.73;;
5363;SDS011;2705;41.410;2.160;2023-01-31T10:53:34;14.97;;;7.30;;
5363;SDS011;2705;41.410;2.160;2023-01-31T10:56:07;14.00;;;7.60;;
5363;SDS011;2705;41.410;2.160;2023-01-31T10:58:38;11.87;;;7.10;;
5363;SDS011;2705;41.410;2.160;2023-01-31T11:01:07;12.63;;;7.07;;
5363;SDS011;2705;41.410;2.160;2023-01-31T11:03:44;16.30;;;9.83;;
5363;SDS011;2705;41.410;2.160;2023-01-31T11:06:16;13.47;;;7.43;;
5363;SDS011;2705;41.410;2.160;2023-01-31T11:08:46;20.63;;;8.50;;
5363;SDS011;2705;41.410;2.160;2023-01-31T11:11:16;7.77;;;6.17;;
5363;SDS011;2705;41.410;2.160;2023-01-31T11:13:57;18.23;;;7.13;;
5363;SDS011;2705;41.410;2.160;2023-01-31T11:16:27;15.57;;;10.90;;
5363;SDS011;2705;41.410;2.160;2023-01-31T11:19:00;10.30;;;7.00;;
5363;SDS011;2705;41.410;2.160;2023-01-31T11:21:30;16.70;;;7.90;;
5363;SDS011;2705;41.410;2.160;2023-01-31T11:24:01;16.80;;;8.00;;
5363;SDS011;2705;41.410;2.160;2023-01-31T11:26:31;10.40;;;6.73;;
5363;SDS011;2705;41.410;2.160;2023-01-31T11:29:02;8.30;;;6.83;;
5363;SDS011;2705;41.410;2.160;2023-01-31T11:31:37;13.47;;;7.60;;
5363;SDS011;2705;41.410;2.160;2023-01-31T11:34:18;12.83;;;6.20;;
5363;SDS011;2705;41.410;2.160;2023-01-31T11:36:48;12.57;;;5.90;;
5363;SDS011;2705;41.410;2.160;2023-01-31T11:39:23;11.67;;;7.40;;
5363;SDS011;2705;41.410;2.160;2023-01-31T11:41:53;11.27;;;6.70;;
5363;SDS011;2705;41.410;2.160;2023-01-31T11:44:22;14.80;;;7.23;;
5363;SDS011;2705;41.410;2.160;2023-01-31T11:46:53;9.50;;;6.40;;
5363;SDS011;2705;41.410;2.160;2023-01-31T11:49:28;12.93;;;6.47;;
5363;SDS011;2705;41.410;2.160;2023-01-31T11:51:58;10.07;;;7.53;;
5363;SDS011;2705;41.410;2.160;2023-01-31T11:54:28;10.77;;;6.33;;
5363;SDS011;2705;41.410;2.160;2023-01-31T11:56:59;10.00;;;6.40;;
5363;SDS011;2705;41.410;2.160;2023-01-31T11:59:29;9.60;;;6.43;;
5363;SDS011;2705;41.410;2.160;2023-01-31T12:01:59;11.53;;;6.40;;
5363;SDS011;2705;41.410;2.160;2023-01-31T12:04:31;11.63;;;6.90;;
5363;SDS011;2705;41.410;2.160;2023-01-31T12:07:02;10.30;;;6.40;;
5363;SDS011;2705;41.410;2.160;2023-01-31T12:09:39;11.37;;;6.70;;
5363;SDS011;2705;41.410;2.160;2023-01-31T12:12:20;13.20;;;7.80;;
5363;SDS011;2705;41.410;2.160;2023-01-31T12:14:50;11.30;;;7.00;;
5363;SDS011;2705;41.410;2.160;2023-01-31T12:17:19;12.37;;;6.93;;
5363;SDS011;2705;41.410;2.160;2023-01-31T12:19:54;11.40;;;7.30;;
5363;SDS011;2705;41.410;2.160;2023-01-31T12:22:29;12.57;;;7.37;;
5363;SDS011;2705;41.410;2.160;2023-01-31T12:25:01;10.80;;;7.57;;
5363;SDS011;2705;41.410;2.160;2023-01-31T12:27:35;14.20;;;9.73;;
5363;SDS011;2705;41.410;2.160;2023-01-31T12:30:14;18.20;;;8.57;;
5363;SDS011;2705;41.410;2.160;2023-01-31T12:32:50;14.90;;;8.60;;
5363;SDS011;2705;41.410;2.160;2023-01-31T12:35:26;12.20;;;8.50;;
5363;SDS011;2705;41.410;2.160;2023-01-31T12:38:00;10.43;;;8.13;;
5363;SDS011;2705;41.410;2.160;2023-01-31T12:40:36;11.47;;;7.60;;
5363;SDS011;2705;41.410;2.160;2023-01-31T12:43:11;11.20;;;7.33;;
5363;SDS011;2705;41.410;2.160;2023-01-31T12:46:00;13.80;;;8.97;;
5363;SDS011;2705;41.410;2.160;2023-01-31T12:48:39;18.83;;;9.50;;
5363;SDS011;2705;41.410;2.160;2023-01-31T12:51:18;13.87;;;8.17;;
5363;SDS011;2705;41.410;2.160;2023-01-31T12:53:53;15.00;;;8.60;;
5363;SDS011;2705;41.410;2.160;2023-01-31T12:56:28;14.20;;;6.60;;
5363;SDS011;2705;41.410;2.160;2023-01-31T12:58:59;13.67;;;7.70;;
5363;SDS011;2705;41.410;2.160;2023-01-31T13:01:44;15.73;;;8.40;;
5363;SDS011;2705;41.410;2.160;2023-01-31T13:04:23;14.33;;;8.43;;
5363;SDS011;2705;41.410;2.160;2023-01-31T13:06:56;15.07;;;10.60;;
5363;SDS011;2705;41.410;2.160;2023-01-31T13:09:27;22.50;;;10.73;;
5363;SDS011;2705;41.410;2.160;2023-01-31T13:12:01;18.83;;;11.17;;
5363;SDS011;2705;41.410;2.160;2023-01-31T13:14:33;20.60;;;12.80;;
5363;SDS011;2705;41.410;2.160;2023-01-31T13:17:04;19.63;;;11.43;;
5363;SDS011;2705;41.410;2.160;2023-01-31T13:19:36;19.07;;;11.60;;
5363;SDS011;2705;41.410;2.160;2023-01-31T13:22:11;18.90;;;11.40;;
5363;SDS011;2705;41.410;2.160;2023-01-31T13:24:41;20.97;;;12.67;;
5363;SDS011;2705;41.410;2.160;2023-01-31T13:27:18;27.80;;;12.67;;
5363;SDS011;2705;41.410;2.160;2023-01-31T13:29:50;24.53;;;11.80;;
5363;SDS011;2705;41.410;2.160;2023-01-31T13:32:20;17.20;;;11.17;;
5363;SDS011;2705;41.410;2.160;2023-01-31T13:34:55;17.50;;;10.70;;
5363;SDS011;2705;41.410;2.160;2023-01-31T13:37:27;16.70;;;11.13;;
5363;SDS011;2705;41.410;2.160;2023-01-31T13:39:58;18.33;;;11.40;;
5363;SDS011;2705;41.410;2.160;2023-01-31T13:42:29;18.97;;;9.93;;
5363;SDS011;2705;41.410;2.160;2023-01-31T13:45:00;21.70;;;10.80;;
5363;SDS011;2705;41.410;2.160;2023-01-31T13:47:32;17.67;;;10.90;;
5363;SDS011;2705;41.410;2.160;2023-01-31T13:50:05;20.73;;;11.13;;
5363;SDS011;2705;41.410;2.160;2023-01-31T13:52:40;19.63;;;11.83;;
5363;SDS011;2705;41.410;2.160;2023-01-31T13:55:13;16.47;;;11.37;;
5363;SDS011;2705;41.410;2.160;2023-01-31T13:57:50;15.43;;;10.27;;
5363;SDS011;2705;41.410;2.160;2023-01-31T14:00:33;20.23;;;11.17;;
5363;SDS011;2705;41.410;2.160;2023-01-31T14:03:05;29.93;;;11.53;;
5363;SDS011;2705;41.410;2.160;2023-01-31T14:05:51;20.70;;;11.30;;
5363;SDS011;2705;41.410;2.160;2023-01-31T14:11:34;18.73;;;11.30;;
5363;SDS011;2705;41.410;2.160;2023-01-31T14:14:17;24.80;;;11.13;;
5363;SDS011;2705;41.410;2.160;2023-01-31T14:16:47;14.50;;;8.97;;
5363;SDS011;2705;41.410;2.160;2023-01-31T14:22:11;20.13;;;10.23;;
5363;SDS011;2705;41.410;2.160;2023-01-31T14:27:29;20.90;;;10.20;;
5363;SDS011;2705;41.410;2.160;2023-01-31T14:33:03;14.27;;;9.87;;
5363;SDS011;2705;41.410;2.160;2023-01-31T14:35:44;13.93;;;8.47;;
5363;SDS011;2705;41.410;2.160;2023-01-31T14:38:18;15.53;;;8.77;;
5363;SDS011;2705;41.410;2.160;2023-01-31T14:40:54;15.13;;;9.23;;
5363;SDS011;2705;41.410;2.160;2023-01-31T14:43:38;20.03;;;10.47;;
5363;SDS011;2705;41.410;2.160;2023-01-31T14:49:12;16.03;;;9.77;;
5363;SDS011;2705;41.410;2.160;2023-01-31T14:54:39;14.43;;;9.67;;
5363;SDS011;2705;41.410;2.160;2023-01-31T14:57:14;18.30;;;9.97;;
5363;SDS011;2705;41.410;2.160;2023-01-31T14:59:50;13.47;;;9.00;;
5363;SDS011;2705;41.410;2.160;2023-01-31T15:02:35;16.63;;;9.53;;
5363;SDS011;2705;41.410;2.160;2023-01-31T15:05:08;15.73;;;8.57;;
5363;SDS011;2705;41.410;2.160;2023-01-31T15:15:56;28.40;;;12.10;;
5363;SDS011;2705;41.410;2.160;2023-01-31T15:18:26;21.07;;;9.67;;
5363;SDS011;2705;41.410;2.160;2023-01-31T15:20:56;24.43;;;9.40;;
5363;SDS011;2705;41.410;2.160;2023-01-31T15:23:27;19.30;;;9.63;;
5363;SDS011;2705;41.410;2.160;2023-01-31T15:25:57;17.00;;;9.40;;
5363;SDS011;2705;41.410;2.160;2023-01-31T15:28:28;13.23;;;7.53;;
5363;SDS011;2705;41.410;2.160;2023-01-31T15:31:00;14.50;;;8.40;;
5363;SDS011;2705;41.410;2.160;2023-01-31T15:33:31;25.17;;;8.17;;
5363;SDS011;2705;41.410;2.160;2023-01-31T15:36:03;19.17;;;8.07;;
5363;SDS011;2705;41.410;2.160;2023-01-31T15:38:37;10.93;;;7.93;;
5363;SDS011;2705;41.410;2.160;2023-01-31T15:41:15;18.90;;;8.90;;
5363;SDS011;2705;41.410;2.160;2023-01-31T15:43:46;17.00;;;9.00;;
5363;SDS011;2705;41.410;2.160;2023-01-31T15:46:22;16.30;;;7.87;;
5363;SDS011;2705;41.410;2.160;2023-01-31T15:48:52;14.10;;;7.47;;
5363;SDS011;2705;41.410;2.160;2023-01-31T15:51:21;12.80;;;7.50;;
5363;SDS011;2705;41.410;2.160;2023-01-31T15:53:58;15.97;;;9.97;;
5363;SDS011;2705;41.410;2.160;2023-01-31T15:56:29;21.30;;;13.33;;
5363;SDS011;2705;41.410;2.160;2023-01-31T15:58:58;15.70;;;8.37;;
5363;SDS011;2705;41.410;2.160;2023-01-31T16:01:29;14.20;;;9.00;;
5363;SDS011;2705;41.410;2.160;2023-01-31T16:03:58;16.73;;;9.33;;
5363;SDS011;2705;41.410;2.160;2023-01-31T16:06:29;22.40;;;9.17;;
5363;SDS011;2705;41.410;2.160;2023-01-31T16:09:00;19.43;;;9.07;;